Latest Weather Observations for Macquarie Island

IDT60801

Issued at 7:35 pm EST Friday 22 August 2014 (issued every 30 minutes, with the page automatically refreshed every 10 minutes)

About weather observations | Map of weather stations | Latest weather observations for TAS | Other Formats
Station Details ID: 300004 Name: MACQUARIE ISLAND Lat: -54.50 Lon: 158.94 Height: 6.0 m
Data from the previous 72 hours. | See also: Recent months at Macquarie Island
Date/Time
EST
Temp
°C
App
Temp
°C
Dew
Point
Rel
Hum
%
Delta-T
°C
Wind Press
QNH
hPa
Press
MSL
hPa
Rain
since 9 am
mm
Dir
 
Spd
km/h
Gust
km/h
Spd
kts
Gust
kts
22/07:30pm 5.9 -2.7 4.9 93 0.4 NW 39 50 21 27 1022.6 - 0.0
22/07:00pm 5.9 -3.0 4.9 93 0.4 NW 41 50 22 27 1022.7 - 0.0
22/06:30pm 5.8 -4.1 4.8 93 0.4 NNW 46 52 25 28 1022.9 - 0.0
22/06:00pm 5.7 -4.6 4.7 93 0.4 NNW 48 56 26 30 1022.8 1023.1 0.0
22/05:30pm 5.8 -5.7 4.6 92 0.5 NNW 54 63 29 34 1022.6 - 0.0
22/05:00pm 5.9 -5.2 4.7 92 0.5 NNW 52 59 28 32 1022.4 - 0.0
22/04:30pm 6.0 -4.7 4.8 92 0.5 NNW 50 59 27 32 1022.2 - 0.0
22/04:00pm 6.1 -4.6 4.7 91 0.6 NNW 50 57 27 31 1022.3 - 0.0
22/03:40pm 6.2 -4.5 4.7 90 0.6 N 50 56 27 30 1022.2 - 0.0
22/03:30pm 6.2 -3.8 4.5 89 0.7 NNW 46 54 25 29 1022.2 - 0.0
22/03:00pm 6.2 -2.8 4.4 88 0.8 NW 41 50 22 27 1022.3 1022.6 0.0
22/02:30pm 6.1 -2.5 4.6 90 0.6 NNW 39 50 21 27 1022.3 - 0.0
22/02:00pm 6.1 -2.5 4.7 91 0.6 NNW 39 44 21 24 1022.4 - 0.0
22/01:30pm 6.3 -3.0 4.8 90 0.7 NNW 43 48 23 26 1022.4 - 0.0
22/01:04pm 6.2 -3.2 4.7 90 0.6 N 43 48 23 26 1022.3 - 0.0
22/01:00pm 6.2 -1.6 4.8 91 0.6 NW 35 44 19 24 1022.3 - 0.0
22/12:30pm 6.2 -0.9 5.3 94 0.4 NNW 32 41 17 22 1022.3 - 0.0
22/12:00pm 5.9 -2.6 5.0 94 0.4 NNW 39 44 21 24 1022.7 1023.0 0.0
22/11:30am 6.0 -1.8 5.0 93 0.4 N 35 41 19 22 1022.9 - 0.0
22/11:28am 6.0 -1.8 5.0 93 0.4 N 35 39 19 21 1022.9 - 0.0
22/11:00am 5.8 -2.4 4.8 93 0.4 NW 37 43 20 23 1023.1 - 0.0
22/10:53am 6.2 -2.3 5.2 93 0.4 NNW 39 43 21 23 1023.0 - 0.0
22/10:30am 5.4 -2.8 4.5 94 0.4 WNW 37 44 20 24 1023.1 - 0.0
22/10:00am 5.3 -4.1 4.4 94 0.4 WNW 43 48 23 26 1023.0 - 0.0
22/09:30am 5.2 -4.2 4.2 93 0.4 WNW 43 52 23 28 1023.0 - 0.0
22/09:00am 5.4 -4.1 4.1 91 0.5 WNW 43 52 23 28 1022.8 1023.1 0.6
22/08:30am 5.3 -4.2 4.1 92 0.5 WNW 43 50 23 27 1022.4 - 0.6
22/08:00am 5.3 -3.4 4.1 92 0.5 WNW 39 48 21 26 1022.2 - 0.6
22/07:30am 5.3 -3.4 4.1 92 0.5 WNW 39 46 21 25 1021.7 - 0.6
22/07:00am 5.2 -3.5 4.0 92 0.5 WNW 39 43 21 23 1021.3 - 0.6
22/06:30am 5.0 -3.0 4.0 93 0.4 WNW 35 43 19 23 1021.0 - 0.6
22/06:00am 4.9 -3.5 3.9 93 0.4 WNW 37 44 20 24 1020.5 1020.8 0.6
22/05:30am 4.9 -4.8 3.9 93 0.4 W 44 54 24 29 1020.1 - 0.6
22/05:00am 4.9 -5.2 3.9 93 0.4 W 46 56 25 30 1019.9 - 0.6
22/04:30am 4.8 -5.7 3.8 93 0.4 W 48 59 26 32 1019.7 - 0.6
22/04:00am 5.0 -6.6 3.7 91 0.5 W 54 70 29 38 1019.6 - 0.6
22/03:56am 4.9 -5.6 3.7 92 0.5 W 48 70 26 38 1019.4 - 0.6
22/03:30am 5.1 -4.4 3.9 92 0.5 W 43 52 23 28 1019.0 - 0.6
22/03:00am 5.1 -5.0 3.9 92 0.5 W 46 57 25 31 1018.7 1019.0 0.6
22/02:30am 5.1 -5.8 3.8 91 0.5 W 50 61 27 33 1018.5 - 0.6
22/02:00am 5.0 -5.5 3.7 91 0.5 W 48 59 26 32 1018.1 - 0.6
22/01:30am 4.8 -6.1 3.5 91 0.5 W 50 61 27 33 1017.9 - 0.6
22/01:00am 4.6 -6.7 3.4 92 0.5 W 52 65 28 35 1017.6 - 0.6
22/12:30am 4.4 -7.3 3.2 92 0.5 W 54 67 29 36 1017.5 - 0.6
22/12:00am 4.4 -6.1 3.4 93 0.4 W 48 57 26 31 1017.0 1017.3 0.6
 
Date/Time
EST
Temp
°C
App
Temp
°C
Dew
Point
Rel
Hum
%
Delta-T
°C
Wind Press
QNH
hPa
Press
MSL
hPa
Rain
since 9 am
mm
Dir
 
Spd
km/h
Gust
km/h
Spd
kts
Gust
kts
21/11:30pm 4.5 -7.2 3.3 92 0.5 W 54 67 29 36 1016.6 - 0.6
21/11:01pm 4.5 -6.4 3.3 92 0.5 W 50 69 27 37 1016.3 - 0.6
21/11:00pm 4.5 -6.4 3.3 92 0.5 W 50 61 27 33 1016.3 - 0.6
21/10:30pm 4.5 -7.6 3.3 92 0.5 W 56 69 30 37 1016.1 - 0.6
21/10:08pm 4.6 -6.8 3.1 90 0.6 W 52 70 28 38 1015.9 - 0.6
21/10:00pm 4.6 -7.1 3.1 90 0.6 W 54 70 29 38 1015.7 - 0.6
21/09:30pm 4.6 -7.5 3.1 90 0.6 W 56 67 30 36 1015.3 - 0.6
21/09:00pm 4.6 -7.5 3.3 91 0.5 W 56 69 30 37 1015.1 1015.4 0.6
21/08:30pm 4.8 -7.3 3.3 90 0.6 W 56 69 30 37 1014.8 - 0.6
21/08:00pm 4.9 -7.3 3.6 91 0.5 W 57 69 31 37 1014.5 - 0.6
21/07:30pm 5.2 -7.8 3.5 89 0.7 W 61 78 33 42 1014.0 - 0.6
21/07:00pm 5.4 -7.1 4.1 91 0.6 W 59 72 32 39 1013.1 - 0.6
21/06:44pm 5.4 -6.5 4.2 92 0.5 W 56 80 30 43 1012.8 - 0.6
21/06:30pm 5.4 -5.3 4.5 94 0.4 W 50 67 27 36 1012.8 - 0.6
21/06:00pm 5.4 -4.6 4.5 94 0.4 W 46 65 25 35 1012.6 1012.9 0.4
21/05:30pm 5.3 -4.3 4.4 94 0.4 WNW 44 59 24 32 1012.3 - 0.4
21/05:00pm 5.3 -5.8 4.4 94 0.4 WNW 52 63 28 34 1011.9 - 0.4
21/04:30pm 5.2 -6.0 4.2 93 0.4 WNW 52 65 28 35 1011.6 - 0.4
21/04:12pm 5.2 -5.6 4.2 93 0.4 WNW 50 69 27 37 1011.5 - 0.4
21/04:00pm 5.3 -6.6 4.3 93 0.4 WNW 56 70 30 38 1011.3 - 0.4
21/03:32pm 5.2 -6.3 4.2 93 0.4 WNW 54 74 29 40 1010.9 - 0.4
21/03:30pm 5.2 -6.3 4.2 93 0.4 WNW 54 65 29 35 1011.0 - 0.4
21/03:00pm 5.3 -6.3 4.1 92 0.5 WNW 54 70 29 38 1011.0 1011.3 0.4
21/02:30pm 5.2 -6.7 4.2 93 0.4 WNW 56 69 30 37 1010.7 - 0.4
21/02:00pm 5.2 -6.8 4.0 92 0.5 WNW 56 69 30 37 1010.5 - 0.2
21/01:30pm 5.0 -7.2 3.8 92 0.5 NW 57 72 31 39 1010.6 - 0.2
21/01:00pm 5.0 -7.9 3.8 92 0.5 NW 61 74 33 40 1010.6 - 0.2
21/12:30pm 5.0 -7.6 3.7 91 0.5 NW 59 78 32 42 1011.0 - 0.2
21/12:27pm 5.0 -7.6 3.7 91 0.5 NW 59 78 32 42 1011.0 - 0.2
21/12:00pm 5.0 -7.0 3.5 90 0.6 NW 56 70 30 38 1011.4 1011.7 0.2
21/11:30am 4.8 -6.9 3.5 91 0.5 NW 54 65 29 35 1011.6 - 0.2
21/11:00am 4.6 -7.5 3.3 91 0.5 NW 56 67 30 36 1012.1 - 0.2
21/10:30am 4.4 -7.3 3.2 92 0.5 WNW 54 65 29 35 1012.5 - 0.2
21/10:00am 4.4 -7.0 2.6 88 0.7 WNW 52 65 28 35 1012.8 - 0.0
21/09:30am 4.4 -7.5 2.4 87 0.8 WNW 54 67 29 36 1013.0 - 0.0
21/09:00am 4.2 -7.3 2.4 88 0.7 NW 52 63 28 34 1012.9 1013.2 1.4
21/08:30am 3.7 -8.2 2.1 89 0.6 WNW 54 67 29 36 1013.2 - 1.4
21/08:07am 3.6 -7.6 1.6 87 0.8 WNW 50 69 27 37 1013.4 - 1.4
21/08:00am 3.5 -7.0 1.5 87 0.8 WNW 46 57 25 31 1013.5 - 1.4
21/07:57am 3.5 -7.0 1.7 88 0.7 W 46 56 25 30 1013.5 - 1.4
21/07:49am 3.4 -8.2 1.8 89 0.6 NW 52 63 28 34 1013.4 - 1.4
21/07:47am 3.3 -8.7 1.8 90 0.6 NNW 54 63 29 34 1013.4 - 1.4
21/07:30am 3.3 -8.0 1.3 87 0.8 WNW 50 63 27 34 1013.6 - 1.4
21/07:00am 3.2 -8.2 0.6 83 1.0 WNW 50 63 27 34 1013.7 - 1.4
21/06:30am 3.2 -7.9 -0.3 78 1.3 WNW 48 59 26 32 1013.8 - 1.4
21/06:00am 3.0 -7.8 -0.6 77 1.3 W 46 59 25 32 1013.6 1013.9 1.4
21/05:30am 2.7 -8.2 -1.3 75 1.4 W 46 59 25 32 1013.6 - 1.4
21/05:00am 2.5 -8.8 -1.7 74 1.5 W 48 59 26 32 1013.9 - 1.4
21/04:52am 2.5 -7.5 -1.7 74 1.5 W 41 59 22 32 1013.8 - 1.4
21/04:30am 2.3 -8.2 -2.2 72 1.6 W 43 54 23 29 1013.8 - 1.4
21/04:00am 2.1 -8.5 -3.6 66 1.9 W 43 59 23 32 1014.1 - 1.4
21/03:31am 1.8 -9.4 -3.7 67 1.9 W 46 65 25 35 1013.9 - 1.4
21/03:30am 1.9 -8.9 -3.4 68 1.8 W 44 57 24 31 1014.0 - 1.4
21/03:00am 1.8 -9.4 -3.3 69 1.7 W 46 70 25 38 1013.6 1013.9 1.4
21/02:30am 1.9 -8.3 -3.6 67 1.8 W 41 61 22 33 1013.3 - 1.4
21/02:00am 1.9 -9.0 -4.2 64 2.1 W 44 67 24 36 1013.1 - 1.4
21/01:30am 1.8 -9.6 -5.1 60 2.3 W 46 72 25 39 1012.8 - 1.4
21/01:20am 1.8 -10.7 -4.9 61 2.3 W 52 70 28 38 1012.8 - 1.4
21/01:19am 1.8 -11.6 -4.5 63 2.2 W 57 70 31 38 1012.6 - 1.4
21/01:00am 1.7 -8.0 -5.4 59 2.4 W 37 67 20 36 1012.7 - 1.4
21/12:30am 1.8 -8.9 -4.5 63 2.2 W 43 72 23 39 1011.9 - 1.4
21/12:00am 1.7 -10.8 -5.2 60 2.3 W 52 76 28 41 1011.5 1011.8 1.4
 
Date/Time
EST
Temp
°C
App
Temp
°C
Dew
Point
Rel
Hum
%
Delta-T
°C
Wind Press
QNH
hPa
Press
MSL
hPa
Rain
since 9 am
mm
Dir
 
Spd
km/h
Gust
km/h
Spd
kts
Gust
kts
20/11:30pm 1.5 -10.3 -5.4 60 2.3 W 48 69 26 37 1011.1 - 1.4
20/11:00pm 1.4 -11.1 -5.5 60 2.3 W 52 76 28 41 1010.7 - 1.4
20/10:30pm 1.3 -10.0 -4.7 64 2.0 W 46 76 25 41 1010.0 - 1.4
20/10:00pm 1.4 -12.0 -6.2 57 2.4 W 56 95 30 51 1009.5 - 1.4
20/09:30pm 1.4 -12.2 -6.4 56 2.5 W 57 78 31 42 1009.3 - 1.4
20/09:04pm 1.1 -11.9 -3.2 73 1.5 W 56 74 30 40 1008.9 - 1.4
20/09:00pm 0.9 -12.8 -3.9 70 1.6 W 59 74 32 40 1008.7 1009.0 1.4
20/08:30pm 1.3 -11.3 -6.0 58 2.4 W 52 76 28 41 1007.9 - 1.4
20/08:00pm 1.2 -12.3 -7.1 54 2.6 W 56 83 30 45 1007.7 - 1.4
20/07:30pm 0.9 -10.9 -5.3 63 2.0 W 48 82 26 44 1007.1 - 1.4
20/07:00pm 1.0 -12.1 -7.5 53 2.6 W 54 85 29 46 1006.6 - 1.4
20/06:30pm 0.9 -12.8 -7.6 53 2.6 W 57 91 31 49 1005.9 - 1.4
20/06:00pm 0.7 -12.7 -6.6 58 2.3 W 56 83 30 45 1005.5 1005.8 1.4
20/05:30pm -0.3 -13.0 -3.7 78 1.1 W 54 76 29 41 1005.4 - 1.4
20/05:25pm -0.4 -13.5 -3.9 77 1.1 W 56 76 30 41 1005.5 - 1.4
20/05:23pm -0.4 -14.5 -3.9 77 1.1 W 61 76 33 41 1005.3 - 1.4
20/05:19pm 0.2 -10.2 -5.0 68 1.7 WSW 41 98 22 53 1005.0 - 1.4
20/05:00pm -0.3 -11.2 -4.4 74 1.3 W 44 72 24 39 1004.6 - 1.4
20/04:30pm 0.4 -13.3 -8.3 52 2.6 W 57 82 31 44 1004.1 - 1.4
20/04:05pm 0.2 -11.3 -6.2 62 2.0 W 46 95 25 51 1003.1 - 1.4
20/04:00pm 0.1 -11.3 -5.9 64 1.9 W 46 76 25 41 1003.0 - 1.4
20/03:39pm 0.3 -9.9 -6.5 60 2.1 W 39 61 21 33 1002.9 - 1.4
20/03:30pm 0.3 -13.4 -7.2 57 2.3 W 57 80 31 43 1002.7 - 1.4
20/03:00pm -0.8 -13.6 -4.8 74 1.2 W 54 76 29 41 1002.5 1002.8 1.4
20/02:52pm -0.5 -14.3 -4.7 73 1.3 W 59 78 32 42 1002.2 - 1.4
20/02:49pm -0.1 -14.2 -4.3 73 1.4 W 61 76 33 41 1001.9 - 1.4
20/02:44pm -0.4 -10.1 -5.6 68 1.6 W 37 63 20 34 1001.8 - 1.4
20/02:30pm 0.5 -13.1 -6.6 59 2.2 W 57 76 31 41 1001.5 - 1.4
20/02:02pm 0.3 -13.2 -6.1 62 2.0 W 57 78 31 42 1001.0 - 1.4
20/02:00pm 0.4 -13.6 -6.7 59 2.2 W 59 76 32 41 1000.5 - 1.4
20/01:30pm 0.3 -11.4 -8.9 50 2.7 W 46 85 25 46 1000.0 - 1.4
20/01:07pm 0.2 -11.6 -6.2 62 2.0 W 48 87 26 47 999.5 - 1.4
20/01:00pm -0.1 -9.4 -5.5 67 1.7 SW 35 63 19 34 999.8 - 1.4
20/12:51pm -0.5 -8.4 -4.7 73 1.3 SW 28 59 15 32 999.5 - 1.4
20/12:44pm -0.3 -8.3 -5.9 66 1.7 SW 28 41 15 22 999.3 - 1.4
20/12:30pm 0.4 -12.7 -6.9 58 2.2 W 54 82 29 44 998.6 - 1.4
20/12:26pm 0.3 -13.4 -7.9 54 2.4 W 57 78 31 42 998.7 - 1.4
20/12:24pm 0.6 -13.8 -6.9 57 2.3 W 61 78 33 42 998.2 - 1.4
20/12:20pm 0.2 -9.9 -5.8 64 1.9 W 39 63 21 34 998.3 - 1.4
20/12:19pm 0.0 -9.3 -5.8 65 1.8 W 35 52 19 28 998.6 - 1.4
20/12:00pm -0.2 -11.9 -5.2 69 1.6 WSW 48 67 26 36 998.3 998.6 1.4
20/11:30am -0.2 -11.3 -3.2 80 1.0 W 46 83 25 45 997.5 - 1.4
20/11:20am -0.9 -10.6 -2.6 88 0.5 W 39 69 21 37 996.9 - 1.4
20/11:19am -1.0 -10.7 -2.4 90 0.4 W 39 56 21 30 997.1 - 1.4
20/11:00am -1.3 -11.7 -1.9 96 0.1 SW 43 78 23 42 996.9 - 1.0
20/10:36am -0.8 -10.7 -3.5 82 0.8 WSW 39 98 21 53 996.7 - 0.6
20/10:30am 1.6 -7.4 -3.1 71 1.6 WSW 35 65 19 35 995.5 - 0.6
20/10:17am 1.6 -6.7 -2.0 77 1.2 W 32 50 17 27 994.9 - 0.6
20/10:12am 1.5 -6.9 -1.4 81 1.0 W 33 46 18 25 994.9 - 0.6
20/10:00am 0.2 -9.2 -2.5 82 0.9 WSW 37 59 20 32 995.0 - 0.6
20/09:57am 0.5 -9.2 -2.2 82 1.0 WSW 39 59 21 32 995.1 - 0.6
20/09:51am 0.7 -7.8 -1.7 84 0.9 W 33 72 18 39 994.5 - 0.4
20/09:48am 0.1 -7.9 -2.1 85 0.8 W 30 52 16 28 994.1 - 0.4
20/09:43am -0.8 -10.9 -2.5 88 0.5 WSW 41 59 22 32 994.6 - 0.4
20/09:38am -0.2 -14.0 -1.9 88 0.6 W 61 96 33 52 994.4 - 0.4
20/09:30am 0.4 -12.1 -2.1 83 0.9 W 54 74 29 40 994.4 - 0.0
20/09:00am 1.8 -11.1 -1.8 77 1.3 W 56 80 30 43 993.4 993.7 4.0
20/08:33am 2.7 -9.8 -1.5 74 1.5 W 54 72 29 39 992.8 - 4.0
20/08:30am 2.7 -10.1 -1.6 73 1.5 W 56 72 30 39 992.9 - 4.0
20/08:00am 2.0 -8.5 -1.1 80 1.1 W 44 65 24 35 993.0 - 4.0
20/07:38am 1.7 -10.9 -2.4 74 1.4 WNW 54 74 29 40 993.0 - 4.0
20/07:30am 2.1 -9.0 -0.2 85 0.8 WNW 48 65 26 35 992.7 - 4.0
20/07:02am 1.7 -11.1 -1.5 79 1.1 W 56 74 30 40 992.8 - 4.0
20/07:00am 1.5 -11.5 -1.7 79 1.1 W 57 74 31 40 992.9 - 4.0
20/06:45am 1.9 -10.5 -0.8 82 1.0 W 54 82 29 44 992.5 - 4.0
20/06:30am 1.4 -10.2 -1.0 84 0.9 W 50 65 27 35 992.6 - 4.0
20/06:13am 2.1 -11.3 -1.5 77 1.3 W 59 78 32 42 992.7 - 4.0
20/06:00am 2.3 -11.6 -2.8 69 1.8 W 61 76 33 41 992.6 992.9 4.0
20/05:35am 2.1 -9.7 -2.0 74 1.4 W 50 72 27 39 992.6 - 4.0
20/05:30am 1.9 -9.3 -1.0 81 1.0 W 48 61 26 33 992.5 - 4.0
20/05:00am 1.6 -9.2 -0.8 84 0.9 W 46 63 25 34 992.6 - 4.0
20/04:34am 1.0 -10.3 -1.1 86 0.7 W 48 67 26 36 992.4 - 4.0
20/04:30am 0.9 -11.5 -1.3 85 0.8 W 54 67 29 36 992.6 - 4.0
20/04:11am 2.0 -11.1 -2.1 74 1.4 W 57 78 31 42 992.2 - 3.8
20/04:00am 1.9 -11.2 -1.9 76 1.3 W 57 74 31 40 992.3 - 3.8
20/03:38am 1.6 -9.6 -1.0 83 0.9 W 48 69 26 37 992.0 - 3.8
20/03:30am 1.2 -10.0 -0.7 87 0.7 W 48 61 26 33 992.2 - 3.8
20/03:11am 1.5 -9.3 -0.3 88 0.7 W 46 65 25 35 992.2 - 3.8
20/03:00am 1.1 -10.4 -0.2 91 0.5 W 50 65 27 35 992.4 992.7 3.4
20/02:30am 0.1 -13.6 -0.7 94 0.3 W 61 76 33 41 992.3 - 3.0
20/02:12am 0.4 -12.7 -2.0 84 0.8 W 57 91 31 49 992.2 - 2.8
20/02:00am 2.1 -9.5 -0.6 82 1.0 WNW 50 69 27 37 991.7 - 2.8
20/01:45am 1.9 -9.2 -0.3 85 0.8 W 48 67 26 36 991.9 - 2.8
20/01:30am 1.6 -10.0 -0.6 85 0.8 W 50 67 27 36 992.0 - 2.8
20/01:00am 0.5 -13.3 -2.0 83 0.9 W 61 82 33 44 993.0 - 2.6
20/12:30am 1.4 -11.5 -0.8 85 0.8 W 57 78 31 42 992.6 - 2.6
20/12:00am 1.5 -12.1 -0.4 87 0.7 W 61 80 33 43 992.7 993.0 2.6
 
Date/Time
EST
Temp
°C
App
Temp
°C
Dew
Point
Rel
Hum
%
Delta-T
°C
Wind Press
QNH
hPa
Press
MSL
hPa
Rain
since 9 am
mm
Dir
 
Spd
km/h
Gust
km/h
Spd
kts
Gust
kts
19/11:44pm 2.1 -10.9 -1.7 76 1.3 W 57 83 31 45 992.3 - 2.6
19/11:30pm 1.6 -10.8 -1.0 83 0.9 W 54 67 29 36 992.2 - 2.6
19/11:19pm 1.1 -10.5 -1.0 86 0.7 W 50 72 27 39 992.2 - 2.6
19/11:08pm 0.4 -12.0 -0.9 91 0.5 W 54 65 29 35 992.2 - 2.4
19/11:00pm 1.1 -15.6 -1.8 81 1.0 W 76 95 41 51 992.8 - 2.4
19/10:57pm 2.6 -14.7 -1.0 77 1.3 W 80 91 43 49 992.3 - 2.4
19/10:31pm 2.5 -10.4 -0.9 78 1.2 W 57 76 31 41 991.6 - 2.4
19/10:30pm 2.5 -10.8 -1.1 77 1.3 W 59 76 32 41 991.6 - 2.4
19/10:00pm 1.7 -9.8 -0.4 86 0.8 W 50 69 27 37 991.7 - 2.4
19/09:49pm 1.5 -9.2 -0.1 89 0.6 W 46 65 25 35 991.7 - 2.4
19/09:35pm 1.1 -10.0 -0.1 92 0.4 W 48 59 26 32 991.7 - 2.2
19/09:31pm 0.9 -14.3 -0.4 91 0.5 W 69 87 37 47 992.0 - 2.2
19/09:30pm 0.9 -14.5 -0.5 90 0.5 W 70 87 38 47 992.1 - 2.2
19/09:28pm 1.0 -15.1 -0.6 89 0.6 W 74 87 40 47 992.1 - 2.2
19/09:12pm 1.4 -10.4 0.1 91 0.5 W 52 70 28 38 991.6 - 1.8
19/09:08pm 1.0 -9.8 -0.3 91 0.5 W 46 54 25 29 991.8 - 1.6
19/09:00pm 0.8 -14.6 -1.0 88 0.6 W 70 95 38 51 992.2 992.5 1.2
19/08:55pm 1.7 -14.1 -1.0 82 1.0 W 72 95 39 51 992.2 - 1.2
19/08:31pm 3.1 -8.4 0.2 81 1.1 WNW 50 70 27 38 991.1 - 1.2
19/08:30pm 3.0 -8.0 0.6 84 0.9 WNW 48 59 26 32 991.2 - 1.2
19/08:01pm 2.7 -10.1 -0.2 81 1.1 W 57 80 31 43 991.8 - 0.8
19/08:00pm 3.1 -9.5 0.3 82 1.0 WNW 56 72 30 39 991.5 - 0.8
19/07:41pm 3.0 -8.8 0.1 81 1.1 W 52 72 28 39 991.4 - 0.8

Other Formats:

Comma delimited format used in spreadsheet applications
http://www.bom.gov.au/fwo/IDT60801/IDT60801.94998.axf

JavaScript Object Notation format (JSON) in row-major order
http://www.bom.gov.au/fwo/IDT60801/IDT60801.94998.json